createdAt,value
2018-08-30T00:01:37.077Z,2.27
2018-08-30T00:04:37.620Z,2.43
2018-08-30T00:07:37.923Z,2.40
2018-08-30T00:10:37.367Z,2.63
2018-08-30T00:13:37.029Z,2.77
2018-08-30T00:16:37.295Z,2.50
2018-08-30T00:19:37.573Z,2.67
2018-08-30T00:22:36.923Z,2.60
2018-08-30T00:25:36.045Z,2.43
2018-08-30T00:28:37.159Z,2.40
2018-08-30T00:31:36.929Z,2.40
2018-08-30T00:34:36.997Z,2.50
2018-08-30T00:37:37.992Z,2.67
2018-08-30T00:40:40.356Z,2.40
2018-08-30T00:43:41.276Z,2.33
2018-08-30T00:46:40.654Z,2.27
2018-08-30T00:49:40.485Z,2.57
2018-08-30T00:52:40.636Z,2.47
2018-08-30T00:55:39.667Z,2.67
2018-08-30T00:58:40.660Z,3.00
2018-08-30T01:01:39.917Z,2.20
2018-08-30T01:04:40.617Z,2.40
2018-08-30T01:07:40.910Z,2.40
2018-08-30T01:10:41.263Z,2.23
2018-08-30T01:13:42.175Z,2.67
2018-08-30T01:16:42.562Z,2.60
2018-08-30T01:19:42.725Z,2.40
2018-08-30T01:22:46.355Z,2.40
2018-08-30T01:25:48.304Z,2.73
2018-08-30T01:28:48.573Z,2.70
2018-08-30T01:31:48.430Z,2.60
2018-08-30T01:34:48.085Z,2.20
2018-08-30T01:37:48.782Z,2.70
2018-08-30T01:40:49.073Z,2.47
2018-08-30T01:43:48.025Z,2.37
2018-08-30T01:46:49.826Z,2.60
2018-08-30T01:49:49.480Z,2.60
2018-08-30T01:52:49.055Z,2.20
2018-08-30T01:55:50.007Z,2.33
2018-08-30T01:58:50.122Z,2.50
2018-08-30T02:01:49.549Z,2.47
2018-08-30T02:04:49.752Z,2.70
2018-08-30T02:07:49.383Z,2.83
2018-08-30T02:10:48.835Z,2.43
2018-08-30T02:13:49.627Z,2.73
2018-08-30T02:16:49.691Z,2.03
2018-08-30T02:19:50.305Z,2.63
2018-08-30T02:22:50.243Z,2.27
2018-08-30T02:25:50.535Z,2.70
2018-08-30T02:28:50.603Z,2.40
2018-08-30T02:31:51.707Z,2.53
2018-08-30T02:34:51.510Z,2.30
2018-08-30T02:37:52.681Z,2.63
2018-08-30T02:40:55.056Z,2.53
2018-08-30T02:43:55.877Z,2.50
2018-08-30T02:46:56.456Z,2.23
2018-08-30T02:49:56.107Z,2.17
2018-08-30T02:52:55.771Z,2.37
2018-08-30T02:55:55.195Z,2.37
2018-08-30T02:58:55.466Z,2.57
2018-08-30T03:01:56.172Z,2.33
2018-08-30T03:04:56.457Z,2.43
2018-08-30T03:07:55.797Z,2.60
2018-08-30T03:10:56.719Z,1.97
2018-08-30T03:13:56.019Z,2.47
2018-08-30T03:16:55.466Z,2.70
2018-08-30T03:19:55.741Z,2.30
2018-08-30T03:22:56.019Z,2.50
2018-08-30T03:25:57.358Z,2.07
2018-08-30T03:28:57.840Z,2.20
2018-08-30T03:31:57.812Z,1.93
2018-08-30T03:34:57.342Z,2.20
2018-08-30T03:37:57.827Z,2.53
2018-08-30T03:40:59.361Z,2.23
2018-08-30T03:43:59.547Z,2.30
2018-08-30T03:46:58.920Z,2.07
2018-08-30T03:49:59.571Z,2.23
2018-08-30T03:53:00.601Z,2.20
2018-08-30T03:56:00.684Z,2.37
2018-08-30T03:59:02.005Z,2.00
2018-08-30T04:02:02.237Z,2.27
2018-08-30T04:05:02.123Z,2.30
2018-08-30T04:08:01.347Z,2.20
2018-08-30T04:11:02.311Z,2.07
2018-08-30T04:14:03.053Z,1.80
2018-08-30T04:17:02.077Z,1.77
2018-08-30T04:20:02.374Z,1.53
2018-08-30T04:23:02.424Z,1.77
2018-08-30T04:26:02.719Z,1.50
2018-08-30T04:29:04.243Z,2.03
2018-08-30T04:32:04.109Z,1.17
2018-08-30T04:35:03.959Z,1.60
2018-08-30T04:38:03.938Z,1.37
2018-08-30T04:41:04.706Z,1.30
2018-08-30T04:44:04.061Z,1.47
2018-08-30T04:47:04.806Z,1.33
2018-08-30T04:50:05.474Z,1.37
2018-08-30T04:53:05.204Z,0.83
2018-08-30T04:56:06.333Z,1.10
2018-08-30T04:59:07.135Z,1.20
2018-08-30T05:02:07.517Z,1.10
2018-08-30T05:05:06.683Z,1.00
2018-08-30T05:08:07.341Z,0.90
2018-08-30T05:11:07.089Z,0.90
2018-08-30T05:14:07.157Z,0.90
2018-08-30T05:17:07.655Z,0.87
2018-08-30T05:20:08.561Z,0.60
2018-08-30T05:23:08.892Z,1.00
2018-08-30T05:26:08.019Z,0.80
2018-08-30T05:29:08.761Z,1.00
2018-08-30T05:32:09.048Z,0.90
2018-08-30T05:35:11.619Z,0.70
2018-08-30T05:38:11.280Z,0.70
2018-08-30T05:41:11.124Z,0.50
2018-08-30T05:44:11.197Z,0.80
2018-08-30T05:47:14.816Z,0.60
2018-08-30T05:50:14.375Z,0.70
2018-08-30T05:53:15.577Z,0.80
2018-08-30T05:56:16.296Z,0.70
2018-08-30T05:59:15.728Z,0.70
2018-08-30T06:02:16.432Z,0.67
2018-08-30T06:05:15.860Z,0.60
2018-08-30T06:08:19.475Z,0.60
2018-08-30T06:11:18.878Z,0.50
2018-08-30T06:14:18.784Z,0.53
2018-08-30T06:17:18.025Z,0.70
2018-08-30T06:20:18.303Z,0.40
2018-08-30T06:23:17.318Z,0.60
2018-08-30T06:26:17.608Z,0.57
2018-08-30T06:29:16.877Z,0.37
2018-08-30T06:32:16.901Z,0.50
2018-08-30T06:35:17.205Z,0.60
2018-08-30T06:38:18.303Z,0.50
2018-08-30T06:41:19.835Z,0.30
2018-08-30T06:44:19.971Z,0.37
2018-08-30T06:47:20.290Z,0.60
2018-08-30T06:50:20.571Z,0.30
2018-08-30T06:53:20.067Z,0.60
2018-08-30T06:56:20.533Z,0.47
2018-08-30T06:59:20.242Z,0.50
2018-08-30T07:02:21.787Z,0.60
2018-08-30T07:05:23.512Z,0.50
2018-08-30T07:08:23.572Z,0.60
2018-08-30T07:11:22.817Z,0.53
2018-08-30T07:14:24.020Z,0.40
2018-08-30T07:17:26.212Z,0.40
2018-08-30T07:20:26.165Z,0.40
2018-08-30T07:23:26.020Z,0.30
2018-08-30T07:26:26.595Z,0.30
2018-08-30T07:29:26.366Z,0.47
2018-08-30T07:32:26.676Z,0.43
2018-08-30T07:35:26.316Z,0.40
2018-08-30T07:38:28.075Z,0.30
2018-08-30T07:41:30.508Z,0.60
2018-08-30T07:44:32.022Z,0.30
2018-08-30T07:47:32.186Z,0.27
2018-08-30T07:50:32.296Z,0.30
2018-08-30T07:53:34.236Z,0.30
2018-08-30T07:56:34.180Z,0.43
2018-08-30T07:59:34.088Z,0.50
2018-08-30T08:02:34.561Z,0.63
2018-08-30T08:05:34.524Z,0.60
2018-08-30T08:08:33.548Z,0.30
2018-08-30T08:11:35.921Z,0.23
2018-08-30T08:14:37.441Z,0.20
2018-08-30T08:17:38.340Z,0.30
2018-08-30T08:20:38.200Z,0.40
2018-08-30T08:23:37.439Z,0.43
2018-08-30T08:26:38.208Z,0.30
2018-08-30T08:29:38.124Z,0.47
2018-08-30T08:32:38.486Z,0.50
2018-08-30T08:35:37.479Z,0.53
2018-08-30T08:38:37.367Z,0.40
2018-08-30T08:41:37.990Z,0.50
2018-08-30T08:44:39.134Z,0.27
2018-08-30T08:47:39.496Z,0.40
2018-08-30T08:50:41.109Z,0.40
2018-08-30T08:53:41.911Z,0.50
2018-08-30T08:56:42.497Z,0.40
2018-08-30T08:59:43.866Z,0.37
2018-08-30T09:02:43.980Z,0.20
2018-08-30T09:05:44.483Z,0.30
2018-08-30T09:08:44.326Z,0.40
2018-08-30T09:11:44.829Z,0.40
2018-08-30T09:14:44.687Z,0.40
2018-08-30T09:17:56.457Z,0.30
2018-08-30T09:20:58.184Z,0.50
2018-08-30T09:23:59.089Z,0.23
2018-08-30T09:27:03.569Z,0.47
2018-08-30T09:30:04.682Z,0.50
2018-08-30T09:33:05.372Z,0.60
2018-08-30T09:36:04.827Z,0.43
2018-08-30T09:39:08.372Z,0.40
2018-08-30T09:42:08.069Z,0.50
2018-08-30T09:45:10.357Z,0.30
2018-08-30T09:48:10.931Z,0.43
2018-08-30T09:51:10.902Z,0.43
2018-08-30T09:54:12.032Z,0.30
2018-08-30T09:57:15.481Z,0.50
2018-08-30T10:00:14.011Z,0.57
2018-08-30T10:03:13.626Z,0.40
2018-08-30T10:06:12.593Z,0.30
2018-08-30T10:09:12.381Z,0.30
2018-08-30T10:12:13.134Z,0.40
2018-08-30T10:15:13.234Z,0.47
2018-08-30T10:18:14.341Z,0.40
2018-08-30T10:21:13.774Z,0.37
2018-08-30T10:24:16.047Z,0.30
2018-08-30T10:27:15.516Z,0.60
2018-08-30T10:30:14.823Z,0.27
2018-08-30T10:33:15.887Z,0.53
2018-08-30T10:36:16.874Z,0.20
2018-08-30T10:39:16.213Z,0.53
2018-08-30T10:42:17.349Z,0.30
2018-08-30T10:45:18.302Z,0.30
2018-08-30T10:48:17.766Z,0.40
2018-08-30T10:51:18.865Z,0.30
2018-08-30T10:54:18.224Z,0.20
2018-08-30T10:57:19.580Z,0.37
2018-08-30T11:00:19.924Z,0.20
2018-08-30T11:03:19.565Z,0.50
2018-08-30T11:06:18.908Z,0.27
2018-08-30T11:09:19.056Z,0.50
2018-08-30T11:12:19.141Z,0.50
2018-08-30T11:15:19.416Z,0.40
2018-08-30T11:18:21.363Z,0.47
2018-08-30T11:21:23.956Z,0.40
2018-08-30T11:24:24.640Z,0.30
2018-08-30T11:27:25.332Z,0.43
2018-08-30T11:30:25.378Z,0.40
2018-08-30T11:33:25.817Z,0.53
2018-08-30T11:36:26.686Z,0.27
2018-08-30T11:39:26.307Z,0.47
2018-08-30T11:42:26.101Z,0.33
2018-08-30T11:45:26.593Z,0.20
2018-08-30T11:48:25.980Z,0.40
2018-08-30T11:51:27.790Z,0.40
2018-08-30T11:54:27.957Z,0.40
2018-08-30T11:57:27.838Z,0.50
2018-08-30T12:00:27.566Z,0.33
2018-08-30T12:03:29.203Z,0.53
2018-08-30T12:06:29.898Z,0.33
2018-08-30T12:09:30.904Z,0.63
2018-08-30T12:12:33.487Z,0.30
2018-08-30T12:15:33.964Z,0.17
2018-08-30T12:18:33.626Z,0.30
2018-08-30T12:21:34.521Z,0.23
2018-08-30T12:24:33.888Z,0.20
2018-08-30T12:27:34.449Z,0.37
2018-08-30T12:30:33.923Z,0.43
2018-08-30T12:36:41.306Z,0.23
2018-08-30T12:39:41.323Z,0.43
2018-08-30T12:42:44.823Z,0.40
2018-08-30T12:45:46.312Z,0.40
2018-08-30T12:48:46.650Z,0.30
2018-08-30T12:51:47.076Z,0.20
2018-08-30T12:54:46.201Z,0.20
2018-08-30T12:57:47.987Z,0.30
2018-08-30T13:00:47.607Z,0.30
2018-08-30T13:03:47.496Z,0.30
2018-08-30T13:06:51.202Z,0.20
2018-08-30T13:09:53.451Z,0.30
2018-08-30T13:12:53.871Z,0.20
2018-08-30T13:15:54.786Z,0.10
2018-08-30T13:18:54.408Z,0.30
2018-08-30T13:21:55.216Z,0.10
2018-08-30T13:24:55.193Z,0.30
2018-08-30T13:27:54.929Z,0.20
2018-08-30T13:30:54.223Z,0.10
2018-08-30T13:33:55.119Z,0.20
2018-08-30T13:36:56.029Z,0.37
2018-08-30T13:39:55.830Z,0.10
2018-08-30T13:42:55.509Z,0.17
2018-08-30T13:45:55.195Z,0.30
2018-08-30T13:48:55.622Z,0.10
2018-08-30T13:51:56.161Z,0.27
2018-08-30T13:54:55.395Z,0.33
2018-08-30T13:57:55.040Z,0.33
2018-08-30T14:00:54.911Z,0.30
2018-08-30T14:03:53.558Z,0.30
2018-08-30T14:06:53.343Z,0.37
2018-08-30T14:09:54.647Z,0.40
2018-08-30T14:12:54.049Z,0.30
2018-08-30T14:15:54.727Z,0.20
2018-08-30T14:18:54.631Z,0.50
2018-08-30T14:21:54.236Z,0.30
2018-08-30T14:24:55.085Z,0.20
2018-08-30T14:27:55.899Z,0.30
2018-08-30T14:30:57.774Z,0.40
2018-08-30T14:34:00.340Z,0.47
2018-08-30T14:37:01.042Z,0.37
2018-08-30T14:40:01.113Z,0.30
2018-08-30T14:43:02.681Z,0.30
2018-08-30T14:46:03.971Z,0.30
2018-08-30T14:49:03.197Z,0.30
2018-08-30T14:52:02.434Z,0.27
2018-08-30T14:55:03.718Z,0.33
2018-08-30T14:58:06.023Z,0.30
2018-08-30T15:01:04.937Z,0.60
2018-08-30T15:04:05.426Z,0.30
2018-08-30T15:07:05.604Z,0.40
2018-08-30T15:10:06.621Z,0.40
2018-08-30T15:13:07.961Z,0.20
2018-08-30T15:16:08.429Z,0.20
2018-08-30T15:19:09.027Z,0.33
2018-08-30T15:22:09.488Z,0.63
2018-08-30T15:25:09.240Z,0.40
2018-08-30T15:28:10.074Z,0.70
2018-08-30T15:31:10.440Z,0.57
2018-08-30T15:34:11.218Z,0.67
2018-08-30T15:37:12.676Z,0.60
2018-08-30T15:40:12.535Z,0.20
2018-08-30T15:43:12.386Z,0.40
2018-08-30T15:46:13.085Z,0.60
2018-08-30T15:49:13.266Z,0.60
2018-08-30T15:52:12.284Z,0.60
2018-08-30T15:55:14.126Z,0.40
2018-08-30T15:58:13.358Z,0.33
2018-08-30T16:01:14.474Z,0.30
2018-08-30T16:04:14.236Z,0.30
2018-08-30T16:07:15.241Z,0.40
2018-08-30T16:10:16.644Z,0.30
2018-08-30T16:13:17.684Z,0.10
2018-08-30T16:16:17.542Z,0.43
2018-08-30T16:19:17.390Z,0.50
2018-08-30T16:22:17.896Z,0.30
2018-08-30T16:25:19.209Z,0.10
2018-08-30T16:28:19.278Z,0.30
2018-08-30T16:31:19.169Z,0.43
2018-08-30T16:34:19.642Z,0.20
2018-08-30T16:37:20.738Z,0.40
2018-08-30T16:40:20.504Z,0.17
2018-08-30T16:43:20.054Z,0.57
2018-08-30T16:46:21.634Z,0.40
2018-08-30T16:49:23.056Z,0.27
2018-08-30T16:52:23.732Z,0.17
2018-08-30T16:55:23.731Z,0.23
2018-08-30T16:58:23.312Z,0.27
2018-08-30T17:01:23.184Z,0.30
2018-08-30T17:04:23.458Z,0.23
2018-08-30T17:07:22.893Z,0.63
2018-08-30T17:10:22.976Z,0.50
2018-08-30T17:13:22.827Z,0.40
2018-08-30T17:16:23.098Z,0.60
2018-08-30T17:19:30.273Z,0.50
2018-08-30T17:22:30.152Z,0.20
2018-08-30T17:25:28.935Z,0.60
2018-08-30T17:28:28.656Z,0.50
2018-08-30T17:31:30.553Z,0.60
2018-08-30T17:34:30.835Z,0.60
2018-08-30T17:37:31.319Z,0.43
2018-08-30T17:40:31.597Z,0.40
2018-08-30T17:43:31.666Z,0.50
2018-08-30T17:46:31.735Z,0.60
2018-08-30T17:49:32.864Z,0.60
2018-08-30T17:52:33.337Z,0.60
2018-08-30T17:55:33.461Z,0.40
2018-08-30T17:58:33.375Z,0.60
2018-08-30T18:01:34.345Z,0.70
2018-08-30T18:04:35.492Z,0.40
2018-08-30T18:07:35.783Z,0.50
2018-08-30T18:10:35.844Z,0.63
2018-08-30T18:13:35.284Z,0.90
2018-08-30T18:16:34.798Z,0.70
2018-08-30T18:19:35.788Z,1.00
2018-08-30T18:22:35.400Z,0.70
2018-08-30T18:25:36.204Z,0.40
2018-08-30T18:28:39.722Z,0.60
2018-08-30T18:31:40.512Z,0.90
2018-08-30T18:34:41.104Z,0.73
2018-08-30T18:37:40.647Z,0.63
2018-08-30T18:40:41.179Z,1.00
2018-08-30T18:43:41.421Z,0.50
2018-08-30T18:46:41.273Z,0.80
2018-08-30T18:49:41.466Z,0.67
2018-08-30T18:52:41.221Z,0.80
2018-08-30T18:55:41.678Z,0.77
2018-08-30T18:58:42.610Z,0.70
2018-08-30T19:01:41.663Z,0.70
2018-08-30T19:04:41.897Z,0.80
2018-08-30T19:07:43.012Z,0.47
2018-08-30T19:10:44.546Z,0.73
2018-08-30T19:13:44.725Z,0.80
2018-08-30T19:16:50.739Z,0.93
2018-08-30T19:19:51.137Z,0.87
2018-08-30T19:22:50.628Z,1.00
2018-08-30T19:25:51.521Z,0.90
2018-08-30T19:28:52.065Z,0.90
2018-08-30T19:31:52.343Z,0.73
2018-08-30T19:34:51.995Z,1.07
2018-08-30T19:37:52.221Z,1.00
2018-08-30T19:40:56.689Z,0.90
2018-08-30T19:43:57.149Z,0.53
2018-08-30T19:46:57.079Z,0.90
2018-08-30T19:49:56.520Z,0.80
2018-08-30T19:52:57.009Z,0.83
2018-08-30T19:55:56.809Z,0.70
2018-08-30T19:58:57.148Z,0.70
2018-08-30T20:01:57.019Z,0.73
2018-08-30T20:04:58.123Z,0.80
2018-08-30T20:08:00.085Z,0.80
2018-08-30T20:10:59.931Z,0.90
2018-08-30T20:14:00.001Z,0.67
2018-08-30T20:16:59.445Z,0.60
2018-08-30T20:20:00.363Z,0.77
2018-08-30T20:23:00.627Z,0.90
2018-08-30T20:26:01.113Z,0.80
2018-08-30T20:29:01.827Z,0.70
2018-08-30T20:32:01.301Z,0.53
2018-08-30T20:35:01.533Z,0.87
2018-08-30T20:38:01.113Z,0.63
2018-08-30T20:41:02.446Z,0.93
2018-08-30T20:44:01.474Z,0.87
2018-08-30T20:47:01.323Z,0.93
2018-08-30T20:50:01.475Z,0.80
2018-08-30T20:53:02.168Z,1.03
2018-08-30T20:56:02.232Z,0.83
2018-08-30T20:59:02.455Z,0.70
2018-08-30T21:02:03.329Z,0.57
2018-08-30T21:05:04.220Z,0.97
2018-08-30T21:08:05.233Z,0.63
2018-08-30T21:11:04.248Z,0.90
2018-08-30T21:14:04.373Z,0.80
2018-08-30T21:17:04.731Z,0.67
2018-08-30T21:20:05.719Z,0.70
2018-08-30T21:23:05.366Z,0.70
2018-08-30T21:26:05.147Z,1.03
2018-08-30T21:29:04.743Z,0.60
2018-08-30T21:32:05.893Z,0.87
2018-08-30T21:35:06.055Z,1.00
2018-08-30T21:38:05.835Z,0.80
2018-08-30T21:41:05.987Z,0.67
2018-08-30T21:44:06.681Z,0.60
2018-08-30T21:47:08.633Z,0.90
2018-08-30T21:50:08.493Z,0.80
2018-08-30T21:53:09.399Z,1.07
2018-08-30T21:56:10.107Z,0.90
2018-08-30T21:59:10.165Z,0.83
2018-08-30T22:02:11.128Z,0.90
2018-08-30T22:05:10.929Z,0.97
2018-08-30T22:08:10.551Z,0.63
2018-08-30T22:11:09.608Z,1.10
2018-08-30T22:14:10.333Z,0.70
2018-08-30T22:17:10.899Z,0.80
2018-08-30T22:20:10.664Z,0.70
2018-08-30T22:23:10.168Z,1.10
2018-08-30T22:26:10.173Z,0.83
2018-08-30T22:29:10.235Z,1.00
2018-08-30T22:32:10.417Z,0.60
2018-08-30T22:35:12.043Z,1.00
2018-08-30T22:38:10.765Z,0.90
2018-08-30T22:41:15.045Z,0.93
2018-08-30T22:44:14.247Z,0.70
2018-08-30T22:47:14.023Z,1.00
2018-08-30T22:50:14.699Z,0.47
2018-08-30T22:53:14.239Z,0.97
2018-08-30T22:56:14.618Z,0.70
2018-08-30T22:59:14.192Z,0.80
2018-08-30T23:02:14.548Z,0.63
2018-08-30T23:05:15.404Z,0.90
2018-08-30T23:08:15.524Z,0.90
2018-08-30T23:11:17.057Z,0.50
2018-08-30T23:14:15.965Z,0.60
2018-08-30T23:17:17.307Z,0.87
2018-08-30T23:20:15.817Z,0.70
2018-08-30T23:23:15.661Z,0.73
2018-08-30T23:26:16.157Z,0.80
2018-08-30T23:29:16.167Z,0.87
2018-08-30T23:32:17.931Z,1.00
2018-08-30T23:35:17.939Z,0.67
2018-08-30T23:38:19.977Z,0.80
2018-08-30T23:41:21.091Z,0.70
2018-08-30T23:44:20.327Z,0.97
2018-08-30T23:47:21.242Z,1.07
2018-08-30T23:50:21.305Z,0.90
2018-08-30T23:53:22.165Z,0.80
2018-08-30T23:56:24.124Z,0.70
2018-08-30T23:59:29.359Z,0.90
